Afton, Oklahoma
Current Conditions -  °F | °C
As of 8:55 PM on Wednesday 26 Nov 2014 (Local Time) from KGMJ Reporting Station
Clear Clear  
Wind Chill: 29°   Ceiling: Unl
Heat Index: 37°   Visibility: 10mi
Dew Point: 28°   Wind: 13mph
Humidity: 70%   Direction: 320°NW
Pressure: 30.35"   Gusts: 18mph
Location:  36.69°N, 94.96°W
Report Text: KGMJ 270255Z AUTO 32011G16KT 10SM CLR 03/M02 A3035 RMK AO2
Loading
Personal Weather Stations






























Interactive Weather Map New forecast layout! Learn more

10-Day Weather Forecast

Advertisements
Track Severe Weather on mobile